createdAt,value
2018-05-02T00:01:25.711Z,5.90
2018-05-02T00:03:53.259Z,5.80
2018-05-02T00:06:20.820Z,5.80
2018-05-02T00:08:49.108Z,5.80
2018-05-02T00:11:16.652Z,5.70
2018-05-02T00:13:44.168Z,5.70
2018-05-02T00:16:12.496Z,5.70
2018-05-02T00:18:40.042Z,5.70
2018-05-02T00:21:07.613Z,5.70
2018-05-02T00:23:35.156Z,5.70
2018-05-02T00:26:02.729Z,5.60
2018-05-02T00:28:30.311Z,5.60
2018-05-02T00:30:57.838Z,5.60
2018-05-02T00:33:25.389Z,5.60
2018-05-02T00:35:52.931Z,5.60
2018-05-02T00:38:21.237Z,5.60
2018-05-02T00:40:48.847Z,5.50
2018-05-02T00:43:16.364Z,5.50
2018-05-02T00:45:43.932Z,5.50
2018-05-02T00:48:11.463Z,5.60
2018-05-02T00:50:39.001Z,5.50
2018-05-02T00:53:07.316Z,5.50
2018-05-02T00:55:34.845Z,5.40
2018-05-02T00:58:02.406Z,5.40
2018-05-02T01:00:29.968Z,5.40
2018-05-02T01:02:57.521Z,5.40
2018-05-02T01:05:25.814Z,5.40
2018-05-02T01:07:53.360Z,5.40
2018-05-02T01:10:20.905Z,5.40
2018-05-02T01:12:48.455Z,5.30
2018-05-02T01:15:15.986Z,5.30
2018-05-02T01:17:43.571Z,5.30
2018-05-02T01:20:11.092Z,5.20
2018-05-02T01:22:38.621Z,5.30
2018-05-02T01:25:06.954Z,5.30
2018-05-02T01:27:34.479Z,5.20
2018-05-02T01:30:02.018Z,5.20
2018-05-02T01:32:30.332Z,5.00
2018-05-02T01:34:57.888Z,5.00
2018-05-02T01:37:25.412Z,5.10
2018-05-02T01:39:53.723Z,4.90
2018-05-02T01:42:21.254Z,4.90
2018-05-02T01:44:49.565Z,4.90
2018-05-02T01:47:17.108Z,4.80
2018-05-02T01:49:44.655Z,4.90
2018-05-02T01:52:12.183Z,5.00
2018-05-02T01:54:39.728Z,5.00
2018-05-02T01:57:08.250Z,5.00
2018-05-02T01:59:36.604Z,4.90
2018-05-02T02:02:04.124Z,4.90
2018-05-02T02:04:31.688Z,4.90
2018-05-02T02:06:59.208Z,4.80
2018-05-02T02:09:27.505Z,4.90
2018-05-02T02:11:55.050Z,4.80
2018-05-02T02:14:22.597Z,4.80
2018-05-02T02:16:50.919Z,4.80
2018-05-02T02:19:18.444Z,4.80
2018-05-02T02:21:46.010Z,4.80
2018-05-02T02:24:13.536Z,4.70
2018-05-02T02:26:41.099Z,4.80
2018-05-02T02:29:08.639Z,4.70
2018-05-02T02:31:36.212Z,4.70
2018-05-02T02:34:03.807Z,4.80
2018-05-02T02:36:31.321Z,4.90
2018-05-02T02:38:58.876Z,4.80
2018-05-02T02:41:26.468Z,4.70
2018-05-02T02:43:53.994Z,4.80
2018-05-02T02:46:21.524Z,4.70
2018-05-02T02:48:49.075Z,4.70
2018-05-02T02:51:17.363Z,4.60
2018-05-02T02:53:45.841Z,4.70
2018-05-02T02:56:14.283Z,4.60
2018-05-02T02:58:42.619Z,4.60
2018-05-02T03:01:10.148Z,4.60
2018-05-02T03:03:38.473Z,4.60
2018-05-02T03:06:06.027Z,4.50
2018-05-02T03:08:33.577Z,4.50
2018-05-02T03:11:01.107Z,4.50
2018-05-02T03:13:28.664Z,4.40
2018-05-02T03:15:56.976Z,4.40
2018-05-02T03:18:24.542Z,4.40
2018-05-02T03:20:52.080Z,4.40
2018-05-02T03:23:19.645Z,4.40
2018-05-02T03:25:47.190Z,4.40
2018-05-02T03:28:14.753Z,4.50
2018-05-02T03:30:42.866Z,4.40
2018-05-02T03:33:10.407Z,4.40
2018-05-02T03:35:37.975Z,4.40
2018-05-02T03:38:05.512Z,4.30
2018-05-02T03:40:33.072Z,4.30
2018-05-02T03:43:00.606Z,4.40
2018-05-02T03:45:28.926Z,4.40
2018-05-02T03:47:56.464Z,4.40
2018-05-02T03:50:24.032Z,4.50
2018-05-02T03:52:51.565Z,4.70
2018-05-02T03:55:19.885Z,4.90
2018-05-02T03:57:47.422Z,4.90
2018-05-02T04:00:26.889Z,5.00
2018-05-02T04:03:06.228Z,5.20
2018-05-02T04:05:45.739Z,5.40
2018-05-02T04:08:13.297Z,5.50
2018-05-02T04:10:40.866Z,5.70
2018-05-02T04:13:08.401Z,5.80
2018-05-02T04:15:36.738Z,6.20
2018-05-02T04:18:04.256Z,6.10
2018-05-02T04:20:31.804Z,6.30
2018-05-02T04:23:00.129Z,6.50
2018-05-02T04:25:27.698Z,6.50
2018-05-02T04:27:55.251Z,6.70
2018-05-02T04:30:22.783Z,6.80
2018-05-02T04:32:50.331Z,6.90
2018-05-02T04:35:17.859Z,7.00
2018-05-02T04:37:45.431Z,7.30
2018-05-02T04:40:13.736Z,9.10
2018-05-02T04:42:41.290Z,9.10
2018-05-02T04:45:08.824Z,9.60
2018-05-02T04:47:37.141Z,9.80
2018-05-02T04:50:04.673Z,9.80
2018-05-02T04:52:33.178Z,9.80
2018-05-02T04:55:00.711Z,10.00
2018-05-02T04:57:28.296Z,10.20
2018-05-02T04:59:55.820Z,10.70
2018-05-02T05:02:23.361Z,10.60
2018-05-02T05:04:50.919Z,11.10
2018-05-02T05:07:18.459Z,11.20
2018-05-02T05:09:46.050Z,11.80
2018-05-02T05:12:13.582Z,12.70
2018-05-02T05:14:41.161Z,13.30
2018-05-02T05:17:08.721Z,14.10
2018-05-02T05:19:36.566Z,14.80
2018-05-02T05:22:04.112Z,15.50
2018-05-02T05:24:31.661Z,16.40
2018-05-02T05:26:59.226Z,16.30
2018-05-02T05:29:26.793Z,16.90
2018-05-02T05:31:54.347Z,17.30
2018-05-02T05:34:21.899Z,17.60
2018-05-02T05:36:50.201Z,16.50
2018-05-02T05:39:17.756Z,16.50
2018-05-02T05:41:45.318Z,15.60
2018-05-02T05:44:12.902Z,15.60
2018-05-02T05:46:40.441Z,15.00
2018-05-02T05:49:07.981Z,14.10
2018-05-02T05:51:35.545Z,13.90
2018-05-02T05:54:03.150Z,13.40
2018-05-02T05:56:30.696Z,13.30
2018-05-02T05:58:58.265Z,13.60
2018-05-02T06:01:25.832Z,13.80
2018-05-02T06:03:53.392Z,13.60
2018-05-02T06:06:21.729Z,12.80
2018-05-02T06:08:49.299Z,12.80
2018-05-02T06:11:16.860Z,13.10
2018-05-02T06:13:44.438Z,13.20
2018-05-02T06:16:12.018Z,13.00
2018-05-02T06:18:39.649Z,13.30
2018-05-02T06:21:07.179Z,13.00
2018-05-02T06:23:34.741Z,13.00
2018-05-02T06:26:02.311Z,13.10
2018-05-02T06:28:29.868Z,13.90
2018-05-02T06:30:57.482Z,14.30
2018-05-02T06:33:25.039Z,14.30
2018-05-02T06:35:52.666Z,14.50
2018-05-02T06:38:20.991Z,15.30
2018-05-02T06:40:48.563Z,15.20
2018-05-02T06:43:16.901Z,15.90
2018-05-02T06:45:44.477Z,15.90
2018-05-02T06:48:12.047Z,15.60
2018-05-02T06:50:39.599Z,15.60
2018-05-02T06:53:07.163Z,15.40
2018-05-02T06:55:34.725Z,15.70
2018-05-02T06:58:02.288Z,15.30
2018-05-02T07:00:29.831Z,15.60
2018-05-02T07:02:57.417Z,15.40
2018-05-02T07:05:24.994Z,15.80
2018-05-02T07:07:53.315Z,15.70
2018-05-02T07:10:20.869Z,15.70
2018-05-02T07:12:48.445Z,16.00
2018-05-02T07:15:16.001Z,16.10
2018-05-02T07:17:43.567Z,16.60
2018-05-02T07:20:11.132Z,16.60
2018-05-02T07:22:38.694Z,16.90
2018-05-02T07:25:06.262Z,16.90
2018-05-02T07:27:33.813Z,17.00
2018-05-02T07:30:01.369Z,17.10
2018-05-02T07:32:28.983Z,17.50
2018-05-02T07:34:56.515Z,17.50
2018-05-02T07:37:24.089Z,17.60
2018-05-02T07:39:51.632Z,17.70
2018-05-02T07:42:19.242Z,17.30
2018-05-02T07:44:46.803Z,17.50
2018-05-02T07:47:15.084Z,17.50
2018-05-02T07:49:42.673Z,17.50
2018-05-02T07:52:10.199Z,18.30
2018-05-02T07:54:37.786Z,18.20
2018-05-02T07:57:05.346Z,18.10
2018-05-02T07:59:32.928Z,18.10
2018-05-02T08:02:01.232Z,18.60
2018-05-02T08:04:28.767Z,18.50
2018-05-02T08:06:56.412Z,18.70
2018-05-02T08:09:23.964Z,18.60
2018-05-02T08:11:51.523Z,18.90
2018-05-02T08:14:19.110Z,19.50
2018-05-02T08:16:46.680Z,19.60
2018-05-02T08:19:14.236Z,19.00
2018-05-02T08:21:41.813Z,19.20
2018-05-02T08:24:10.127Z,19.70
2018-05-02T08:26:37.695Z,19.70
2018-05-02T08:29:06.158Z,19.20
2018-05-02T08:31:33.723Z,19.00
2018-05-02T08:34:01.251Z,19.30
2018-05-02T08:36:28.824Z,19.30
2018-05-02T08:38:57.179Z,19.20
2018-05-02T08:41:24.747Z,19.10
2018-05-02T08:43:53.070Z,20.00
2018-05-02T08:46:20.638Z,20.00
2018-05-02T08:48:48.197Z,19.30
2018-05-02T08:51:15.753Z,19.60
2018-05-02T08:53:43.335Z,19.70
2018-05-02T08:56:10.863Z,19.50
2018-05-02T08:58:38.433Z,19.20
2018-05-02T09:01:05.973Z,18.70
2018-05-02T09:03:33.577Z,17.60
2018-05-02T09:06:01.201Z,17.20
2018-05-02T09:08:28.729Z,16.70
2018-05-02T09:10:56.283Z,15.90
2018-05-02T09:13:23.869Z,15.40
2018-05-02T09:15:52.271Z,14.90
2018-05-02T09:18:19.850Z,14.90
2018-05-02T09:20:47.387Z,14.70
2018-05-02T09:23:15.703Z,14.60
2018-05-02T09:25:43.319Z,14.60
2018-05-02T09:28:10.839Z,14.60
2018-05-02T09:30:38.388Z,14.50
2018-05-02T09:33:05.958Z,14.70
2018-05-02T09:35:33.613Z,14.60
2018-05-02T09:38:01.160Z,14.60
2018-05-02T09:40:28.733Z,14.60
2018-05-02T09:42:56.272Z,14.70
2018-05-02T09:45:23.847Z,14.60
2018-05-02T09:47:51.387Z,14.60
2018-05-02T09:50:18.968Z,14.50
2018-05-02T09:52:46.513Z,14.40
2018-05-02T09:55:14.088Z,14.40
2018-05-02T09:57:41.672Z,14.50
2018-05-02T10:00:09.265Z,14.70
2018-05-02T10:02:37.984Z,14.90
2018-05-02T10:05:05.558Z,14.90
2018-05-02T10:07:33.097Z,15.00
2018-05-02T10:10:00.661Z,15.00
2018-05-02T10:12:28.266Z,15.00
2018-05-02T10:14:55.812Z,14.90
2018-05-02T10:17:23.355Z,14.90
2018-05-02T10:19:50.899Z,15.10
2018-05-02T10:22:18.459Z,15.10
2018-05-02T10:24:46.002Z,14.70
2018-05-02T10:27:13.585Z,14.50
2018-05-02T10:29:41.138Z,14.40
2018-05-02T10:32:08.706Z,14.40
2018-05-02T10:34:36.244Z,14.40
2018-05-02T10:37:03.803Z,14.40
2018-05-02T10:39:31.348Z,14.60
2018-05-02T10:41:59.661Z,14.60
2018-05-02T10:44:27.209Z,14.60
2018-05-02T10:46:54.757Z,14.60
2018-05-02T10:49:23.045Z,14.70
2018-05-02T10:51:50.628Z,14.70
2018-05-02T10:54:18.179Z,14.80
2018-05-02T10:56:45.744Z,14.90
2018-05-02T10:59:13.301Z,14.90
2018-05-02T11:01:40.876Z,14.80
2018-05-02T11:04:08.458Z,14.70
2018-05-02T11:06:36.032Z,14.50
2018-05-02T11:09:03.573Z,14.50
2018-05-02T11:11:31.103Z,14.60
2018-05-02T11:13:58.657Z,14.50
2018-05-02T11:16:26.200Z,14.70
2018-05-02T11:18:53.792Z,14.50
2018-05-02T11:21:21.392Z,14.70
2018-05-02T11:23:48.949Z,14.70
2018-05-02T11:26:16.531Z,14.60
2018-05-02T11:28:44.847Z,14.60
2018-05-02T11:31:13.290Z,14.60
2018-05-02T11:33:41.639Z,14.50
2018-05-02T11:36:09.195Z,14.50
2018-05-02T11:38:36.775Z,14.50
2018-05-02T11:41:04.898Z,14.40
2018-05-02T11:43:32.456Z,14.30
2018-05-02T11:45:59.984Z,14.30
2018-05-02T11:48:28.278Z,14.40
2018-05-02T11:50:55.837Z,14.30
2018-05-02T11:53:23.405Z,14.20
2018-05-02T11:55:50.976Z,14.20
2018-05-02T11:58:18.503Z,14.10
2018-05-02T12:00:46.081Z,14.10
2018-05-02T12:03:13.642Z,14.00
2018-05-02T12:05:41.237Z,13.90
2018-05-02T12:08:08.805Z,14.00
2018-05-02T12:10:36.387Z,13.80
2018-05-02T12:13:04.874Z,13.70
2018-05-02T12:15:32.445Z,13.60
2018-05-02T12:18:00.754Z,13.70
2018-05-02T12:20:28.332Z,13.60
2018-05-02T12:22:55.991Z,13.60
2018-05-02T12:25:23.546Z,13.50
2018-05-02T12:27:51.116Z,13.40
2018-05-02T12:30:18.690Z,13.20
2018-05-02T12:32:46.270Z,13.20
2018-05-02T12:35:13.836Z,13.10
2018-05-02T12:37:41.389Z,13.10
2018-05-02T12:40:08.972Z,13.10
2018-05-02T12:42:37.284Z,13.30
2018-05-02T12:45:04.867Z,13.30
2018-05-02T12:47:32.430Z,13.40
2018-05-02T12:49:59.970Z,13.40
2018-05-02T12:52:27.529Z,13.40
2018-05-02T12:54:55.087Z,13.60
2018-05-02T12:57:22.649Z,13.80
2018-05-02T12:59:50.213Z,14.00
2018-05-02T13:02:17.763Z,14.10
2018-05-02T13:04:45.314Z,14.10
2018-05-02T13:07:12.892Z,14.20
2018-05-02T13:09:40.469Z,14.30
2018-05-02T13:12:08.019Z,14.40
2018-05-02T13:14:35.671Z,14.50
2018-05-02T13:17:04.139Z,14.80
2018-05-02T13:19:31.698Z,15.00
2018-05-02T13:21:59.268Z,15.20
2018-05-02T13:24:26.837Z,15.40
2018-05-02T13:26:54.389Z,15.40
2018-05-02T13:29:21.954Z,15.10
2018-05-02T13:31:49.582Z,15.10
2018-05-02T13:34:17.912Z,15.40
2018-05-02T13:36:45.458Z,15.40
2018-05-02T13:39:13.027Z,15.60
2018-05-02T13:41:40.581Z,15.40
2018-05-02T15:09:06.290Z,15.60
2018-05-02T15:11:33.876Z,15.60
2018-05-02T15:14:01.408Z,15.50
2018-05-02T15:16:29.030Z,15.70
2018-05-02T15:18:57.345Z,15.60
2018-05-02T15:21:24.957Z,15.70
2018-05-02T15:23:53.310Z,15.80
2018-05-02T15:26:20.856Z,15.80
2018-05-02T15:28:48.418Z,15.90
2018-05-02T15:31:15.978Z,16.00
2018-05-02T15:33:43.627Z,16.00
2018-05-02T15:36:11.188Z,16.10
2018-05-02T15:38:38.769Z,16.00
2018-05-02T15:41:06.313Z,15.90
2018-05-02T15:43:33.893Z,15.80
2018-05-02T15:46:01.436Z,15.90
2018-05-02T15:48:29.010Z,16.00
2018-05-02T15:50:56.619Z,16.00
2018-05-02T15:53:24.132Z,15.90
2018-05-02T15:55:51.681Z,15.90
2018-05-02T15:58:19.334Z,15.90
2018-05-02T16:00:46.855Z,15.80
2018-05-02T16:03:15.226Z,15.70
2018-05-02T16:05:42.779Z,15.70
2018-05-02T16:08:10.317Z,15.60
2018-05-02T16:10:37.886Z,15.50
2018-05-02T16:13:05.426Z,15.40
2018-05-02T16:15:32.983Z,15.30
2018-05-02T16:18:00.530Z,15.20
2018-05-02T16:20:28.102Z,15.00
2018-05-02T16:22:55.654Z,15.00
2018-05-02T16:25:23.193Z,15.00
2018-05-02T16:27:50.785Z,15.00
2018-05-02T16:30:18.359Z,14.90
2018-05-02T16:32:46.773Z,14.70
2018-05-02T16:35:14.340Z,14.70
2018-05-02T16:37:41.880Z,14.80
2018-05-02T16:40:09.445Z,14.70
2018-05-02T16:42:36.979Z,14.70
2018-05-02T16:45:05.546Z,14.60
2018-05-02T16:47:33.100Z,14.60
2018-05-02T16:50:00.661Z,14.70
2018-05-02T16:52:28.222Z,14.60
2018-05-02T16:54:56.755Z,14.60
2018-05-02T16:57:24.335Z,14.50
2018-05-02T16:59:52.620Z,14.50
2018-05-02T17:02:21.754Z,14.50
2018-05-02T17:04:49.327Z,14.50
2018-05-02T17:07:16.897Z,14.50
2018-05-02T17:09:44.522Z,14.50
2018-05-02T17:12:12.231Z,14.40
2018-05-02T17:14:39.849Z,14.40
2018-05-02T17:17:07.404Z,14.40
2018-05-02T17:19:34.951Z,14.40
2018-05-02T17:22:02.531Z,14.40
2018-05-02T17:24:30.063Z,14.40
2018-05-02T17:26:57.635Z,14.40
2018-05-02T17:29:25.192Z,14.40
2018-05-02T17:31:52.799Z,14.30
2018-05-02T17:34:20.348Z,14.30
2018-05-02T17:36:47.882Z,14.30
2018-05-02T17:39:15.511Z,14.30
2018-05-02T17:41:43.842Z,14.20
2018-05-02T17:44:11.439Z,14.10
2018-05-02T17:46:39.057Z,14.20
2018-05-02T17:49:06.647Z,14.10
2018-05-02T17:51:34.187Z,14.10
2018-05-02T17:54:01.772Z,14.10
2018-05-02T17:56:29.374Z,14.10
2018-05-02T17:58:56.984Z,14.00
2018-05-02T18:01:24.529Z,13.90
2018-05-02T18:03:52.084Z,13.90
2018-05-02T18:06:19.677Z,14.00
2018-05-02T18:08:47.231Z,13.90
2018-05-02T18:11:14.785Z,13.90
2018-05-02T18:13:42.365Z,13.80
2018-05-02T18:16:09.984Z,13.80
2018-05-02T18:18:37.537Z,13.80
2018-05-02T18:21:05.065Z,13.80
2018-05-02T18:23:33.364Z,13.70
2018-05-02T18:26:00.937Z,13.60
2018-05-02T18:28:28.492Z,13.70
2018-05-02T18:30:56.094Z,13.60
2018-05-02T18:33:27.369Z,13.60
2018-05-02T18:35:54.955Z,13.60
2018-05-02T18:38:22.503Z,13.60
2018-05-02T18:40:50.861Z,13.50
2018-05-02T18:43:18.406Z,13.50
2018-05-02T18:45:45.967Z,13.50
2018-05-02T18:48:13.506Z,13.40
2018-05-02T18:50:41.051Z,13.40
2018-05-02T18:53:08.678Z,13.30
2018-05-02T18:55:36.179Z,13.30
2018-05-02T18:58:03.736Z,13.20
2018-05-02T19:00:31.281Z,13.10
2018-05-02T19:02:58.855Z,13.10
2018-05-02T19:05:26.435Z,13.00
2018-05-02T19:07:53.991Z,12.90
2018-05-02T19:10:22.555Z,12.90
2018-05-02T19:12:50.123Z,12.80
2018-05-02T19:15:17.668Z,12.70
2018-05-02T19:17:50.986Z,12.60
2018-05-02T19:20:24.253Z,12.60
2018-05-02T19:22:51.858Z,12.70
2018-05-02T19:25:40.344Z,12.60
2018-05-02T19:28:08.664Z,12.50
2018-05-02T19:30:36.238Z,12.50
2018-05-02T19:33:09.553Z,12.60
2018-05-02T19:35:37.121Z,12.60
2018-05-02T19:38:04.689Z,12.70
2018-05-02T19:40:38.694Z,12.70
2018-05-02T19:43:12.038Z,12.70
2018-05-02T19:45:39.578Z,12.70
2018-05-02T19:48:07.196Z,12.70
2018-05-02T19:50:34.760Z,12.70
2018-05-02T19:53:02.320Z,12.70
2018-05-02T19:55:29.866Z,12.70
2018-05-02T19:57:57.463Z,12.60
2018-05-02T20:00:31.412Z,12.60
2018-05-02T20:03:00.780Z,12.60
2018-05-02T20:05:29.101Z,12.60
2018-05-02T20:07:56.664Z,12.60
2018-05-02T20:10:29.985Z,12.60
2018-05-02T20:13:03.183Z,12.60
2018-05-02T20:15:30.740Z,12.60
2018-05-02T20:17:58.315Z,12.50
2018-05-02T20:20:26.657Z,12.60
2018-05-02T20:22:54.210Z,12.50
2018-05-02T20:25:21.874Z,12.60
2018-05-02T20:27:49.371Z,12.60
2018-05-02T20:30:16.930Z,12.50
2018-05-02T20:32:44.483Z,12.50
2018-05-02T20:35:12.030Z,12.50
2018-05-02T20:37:39.581Z,12.50
2018-05-02T20:40:07.988Z,12.50
2018-05-02T20:42:35.549Z,12.50
2018-05-02T20:45:04.048Z,12.50
2018-05-02T20:47:32.378Z,12.40
2018-05-02T20:50:00.687Z,12.40
2018-05-02T20:52:28.248Z,12.40
2018-05-02T20:54:55.829Z,12.40
2018-05-02T20:57:24.165Z,12.30
2018-05-02T20:59:51.721Z,12.30
2018-05-02T21:02:19.276Z,12.30
2018-05-02T21:04:46.847Z,12.30
2018-05-02T21:07:14.397Z,12.20
2018-05-02T21:09:41.977Z,12.20
2018-05-02T21:12:09.527Z,12.20
2018-05-02T21:14:37.052Z,12.20
2018-05-02T21:17:04.610Z,12.20
2018-05-02T21:19:32.137Z,12.20
2018-05-02T21:22:00.481Z,12.20
2018-05-02T21:24:28.027Z,12.20
2018-05-02T21:26:55.629Z,12.20
2018-05-02T21:29:23.181Z,12.20
2018-05-02T21:31:50.719Z,12.20
2018-05-02T21:34:18.275Z,12.20
2018-05-02T21:36:45.828Z,12.30
2018-05-02T21:39:13.383Z,12.30
2018-05-02T21:41:40.928Z,12.20
2018-05-02T21:44:08.489Z,12.30
2018-05-02T21:46:36.063Z,12.30
2018-05-02T21:49:03.629Z,12.30
2018-05-02T21:51:31.206Z,12.20
2018-05-02T21:53:58.785Z,12.20
2018-05-02T21:56:26.316Z,12.20
2018-05-02T21:58:53.901Z,12.20
2018-05-02T22:01:21.464Z,12.20
2018-05-02T22:03:49.804Z,12.20
2018-05-02T22:06:17.345Z,12.20
2018-05-02T22:08:44.921Z,12.20
2018-05-02T22:11:13.356Z,12.10
2018-05-02T22:13:40.947Z,12.10
2018-05-02T22:16:08.516Z,12.10
2018-05-02T22:18:36.085Z,12.10
2018-05-02T22:21:03.653Z,12.00
2018-05-02T22:23:31.191Z,12.00
2018-05-02T22:25:58.758Z,12.00
2018-05-02T22:28:26.319Z,12.00
2018-05-02T22:30:53.871Z,11.90
2018-05-02T22:33:21.403Z,11.90
2018-05-02T22:35:48.957Z,11.80
2018-05-02T22:38:19.986Z,11.80
2018-05-02T22:40:47.540Z,11.70
2018-05-02T22:43:20.147Z,11.70
2018-05-02T22:45:48.494Z,11.60
2018-05-02T22:48:16.027Z,11.60
2018-05-02T22:50:44.457Z,11.60
2018-05-02T22:53:11.993Z,11.70
2018-05-02T22:55:40.332Z,11.70
2018-05-02T22:58:07.886Z,11.70
2018-05-02T23:00:35.444Z,11.70
2018-05-02T23:03:03.022Z,11.80
2018-05-02T23:05:30.578Z,11.80
2018-05-02T23:07:58.134Z,11.80
2018-05-02T23:10:25.705Z,11.80
2018-05-02T23:12:53.271Z,11.80
2018-05-02T23:15:20.804Z,11.80
2018-05-02T23:17:48.373Z,11.80
2018-05-02T23:20:15.912Z,11.80
2018-05-02T23:22:44.221Z,11.70
2018-05-02T23:25:11.769Z,11.70
2018-05-02T23:27:39.327Z,11.60
2018-05-02T23:30:06.872Z,11.50
2018-05-02T23:32:34.431Z,11.50
2018-05-02T23:35:02.812Z,11.60
2018-05-02T23:37:30.324Z,11.60
2018-05-02T23:39:58.646Z,11.70
2018-05-02T23:42:28.925Z,11.70
2018-05-02T23:44:57.265Z,11.70
2018-05-02T23:47:28.187Z,11.70
2018-05-02T23:49:56.522Z,11.80
2018-05-02T23:52:24.041Z,11.70
2018-05-02T23:54:51.584Z,11.80
2018-05-02T23:57:38.544Z,11.80
